createdAt,value
2018-12-24T00:00:56.435Z,17.85
2018-12-24T00:03:27.055Z,17.02
2018-12-24T00:06:14.294Z,15.88
2018-12-24T00:08:42.503Z,15.83
2018-12-24T00:11:10.687Z,16.12
2018-12-24T00:13:38.871Z,15.38
2018-12-24T00:16:07.054Z,17.07
2018-12-24T00:18:35.237Z,16.90
2018-12-24T00:21:03.478Z,16.30
2018-12-24T00:23:31.682Z,14.93
2018-12-24T00:25:59.871Z,15.60
2018-12-24T00:28:28.054Z,13.93
2018-12-24T00:30:56.349Z,16.37
2018-12-24T00:33:24.549Z,15.13
2018-12-24T00:35:52.790Z,16.30
2018-12-24T00:38:21.007Z,14.87
2018-12-24T00:40:49.235Z,15.43
2018-12-24T00:43:17.487Z,16.07
2018-12-24T00:45:45.687Z,17.20
2018-12-24T00:48:13.928Z,19.42
2018-12-24T00:50:42.126Z,16.35
2018-12-24T00:53:29.268Z,16.45
2018-12-24T00:55:57.542Z,18.50
2018-12-24T00:58:25.782Z,17.60
2018-12-24T01:00:53.982Z,16.95
2018-12-24T01:03:22.211Z,17.48
2018-12-24T01:05:50.376Z,20.95
2018-12-24T01:08:18.638Z,18.10
2018-12-24T01:10:46.809Z,19.25
2018-12-24T01:13:15.047Z,20.27
2018-12-24T01:18:30.509Z,18.32
2018-12-24T01:20:58.808Z,20.23
2018-12-24T01:23:27.204Z,20.95
2018-12-24T01:25:55.409Z,17.25
2018-12-24T01:28:23.628Z,17.32
2018-12-24T01:30:51.894Z,18.73
2018-12-24T01:33:20.071Z,17.60
2018-12-24T01:35:48.225Z,18.12
2018-12-24T01:38:16.443Z,19.00
2018-12-24T01:40:44.666Z,18.80
2018-12-24T01:43:12.863Z,18.48
2018-12-24T01:45:41.080Z,21.35
2018-12-24T01:48:11.450Z,19.50
2018-12-24T01:50:39.654Z,18.90
2018-12-24T01:53:07.869Z,20.72
2018-12-24T01:55:36.078Z,19.82
2018-12-24T01:58:04.781Z,18.12
2018-12-24T02:00:32.997Z,19.55
2018-12-24T02:03:01.178Z,20.55
2018-12-24T02:05:29.440Z,18.07
2018-12-24T02:07:57.678Z,19.30
2018-12-24T02:10:25.969Z,18.32
2018-12-24T02:12:54.149Z,18.95
2018-12-24T02:18:16.950Z,21.10
2018-12-24T02:20:45.142Z,21.30
2018-12-24T02:23:13.596Z,20.37
2018-12-24T02:26:02.878Z,21.23
2018-12-24T02:28:31.038Z,22.07
2018-12-24T02:30:59.271Z,21.68
2018-12-24T02:33:27.595Z,22.40
2018-12-24T02:35:56.195Z,21.00
2018-12-24T02:38:24.410Z,22.22
2018-12-24T02:40:52.626Z,41.23
2018-12-24T02:43:20.818Z,23.75
2018-12-24T02:45:49.013Z,25.20
2018-12-24T02:48:17.262Z,24.15
2018-12-24T02:50:45.450Z,24.00
2018-12-24T02:53:13.635Z,24.23
2018-12-24T02:55:41.890Z,26.90
2018-12-24T02:58:12.528Z,24.77
2018-12-24T03:00:40.687Z,23.18
2018-12-24T03:03:09.181Z,26.60
2018-12-24T03:05:37.384Z,23.73
2018-12-24T03:08:05.591Z,24.12
2018-12-24T03:10:52.720Z,24.18
2018-12-24T03:13:20.925Z,24.12
2018-12-24T03:15:49.134Z,24.32
2018-12-24T03:18:17.402Z,23.02
2018-12-24T03:20:45.711Z,28.15
2018-12-24T03:23:13.938Z,22.48
2018-12-24T03:25:42.111Z,23.40
2018-12-24T03:28:10.571Z,25.15
2018-12-24T03:30:58.047Z,25.80
2018-12-24T03:33:26.360Z,22.65
2018-12-24T03:35:54.563Z,23.60
2018-12-24T03:38:22.758Z,26.20
2018-12-24T03:43:45.499Z,22.67
2018-12-24T03:46:13.774Z,25.77
2018-12-24T03:48:41.975Z,21.57
2018-12-24T03:51:10.170Z,24.30
2018-12-24T03:53:38.430Z,19.85
2018-12-24T03:56:06.668Z,20.55
2018-12-24T03:58:34.855Z,21.55
2018-12-24T04:01:03.100Z,22.22
2018-12-24T04:03:31.274Z,23.27
2018-12-24T04:06:18.469Z,21.20
2018-12-24T04:08:46.627Z,22.65
2018-12-24T04:11:15.276Z,21.07
2018-12-24T04:14:02.409Z,23.15
2018-12-24T04:16:30.637Z,20.90
2018-12-24T04:18:58.776Z,23.55
2018-12-24T04:21:26.974Z,22.25
2018-12-24T04:23:55.195Z,22.42
2018-12-24T04:26:23.384Z,23.40
2018-12-24T04:28:51.554Z,23.95
2018-12-24T04:31:19.802Z,23.42
2018-12-24T04:33:47.989Z,25.35
2018-12-24T04:36:16.295Z,22.77
2018-12-24T04:38:44.590Z,21.48
2018-12-24T04:41:12.789Z,21.77
2018-12-24T04:43:40.986Z,22.35
2018-12-24T04:46:09.131Z,21.85
2018-12-24T04:48:37.335Z,25.00
2018-12-24T04:51:05.958Z,20.70
2018-12-24T04:53:34.178Z,19.87
2018-12-24T04:56:02.387Z,20.17
2018-12-24T04:58:30.641Z,20.72
2018-12-24T05:00:58.956Z,21.40
2018-12-24T05:03:27.149Z,21.90
2018-12-24T05:05:55.336Z,20.15
2018-12-24T05:08:23.523Z,20.80
2018-12-24T05:10:51.681Z,23.75
2018-12-24T05:13:20.349Z,21.30
2018-12-24T05:15:48.567Z,23.00
2018-12-24T05:18:17.022Z,21.97
2018-12-24T05:20:45.335Z,23.05
2018-12-24T05:23:13.462Z,26.10
2018-12-24T05:25:41.731Z,21.68
2018-12-24T05:28:28.859Z,22.10
2018-12-24T05:33:58.767Z,20.77
2018-12-24T05:36:27.019Z,20.75
2018-12-24T05:38:55.256Z,19.20
2018-12-24T05:41:23.432Z,17.82
2018-12-24T05:44:10.474Z,17.25
2018-12-24T05:46:38.741Z,18.00
2018-12-24T05:49:07.013Z,19.25
2018-12-24T05:51:35.207Z,17.10
2018-12-24T05:54:03.387Z,17.50
2018-12-24T05:56:31.590Z,17.35
2018-12-24T05:58:59.742Z,21.57
2018-12-24T06:01:27.954Z,17.70
2018-12-24T06:03:56.172Z,16.97
2018-12-24T06:06:24.393Z,18.12
2018-12-24T06:09:11.589Z,17.10
2018-12-24T06:11:39.855Z,17.65
2018-12-24T06:14:27.998Z,15.50
2018-12-24T06:16:56.243Z,14.80
2018-12-24T06:19:27.160Z,15.20
2018-12-24T06:21:55.416Z,15.10
2018-12-24T06:24:42.560Z,14.75
2018-12-24T06:27:10.801Z,15.35
2018-12-24T06:29:38.974Z,15.72
2018-12-24T06:32:07.155Z,14.43
2018-12-24T06:34:35.366Z,16.70
2018-12-24T06:37:03.577Z,14.40
2018-12-24T06:39:31.768Z,16.55
2018-12-24T06:42:00.050Z,13.85
2018-12-24T06:44:54.750Z,14.55
2018-12-24T06:47:42.074Z,16.73
2018-12-24T06:50:10.272Z,15.45
2018-12-24T06:55:27.486Z,15.05
2018-12-24T06:57:55.635Z,15.10
2018-12-24T07:00:23.898Z,16.65
2018-12-24T07:02:52.149Z,16.25
2018-12-24T07:05:20.422Z,15.80
2018-12-24T07:07:48.599Z,14.95
2018-12-24T07:10:16.867Z,15.93
2018-12-24T07:12:45.053Z,16.60
2018-12-24T07:15:13.274Z,16.05
2018-12-24T07:17:41.454Z,16.37
2018-12-24T07:23:04.216Z,15.90
2018-12-24T07:25:32.449Z,16.42
2018-12-24T07:28:00.616Z,15.70
2018-12-24T07:30:28.983Z,15.48
2018-12-24T07:33:16.846Z,14.87
2018-12-24T07:35:45.063Z,15.50
2018-12-24T07:38:13.651Z,16.17
2018-12-24T07:40:41.906Z,16.70
2018-12-24T07:43:10.137Z,15.95
2018-12-24T07:45:38.246Z,15.72
2018-12-24T07:48:06.461Z,16.45
2018-12-24T07:50:34.654Z,17.77
2018-12-24T07:53:02.797Z,17.55
2018-12-24T07:55:30.942Z,17.40
2018-12-24T07:57:59.113Z,16.80
2018-12-24T08:00:27.275Z,15.60
2018-12-24T08:02:55.430Z,17.30
2018-12-24T08:05:23.594Z,17.40
2018-12-24T08:07:51.788Z,17.57
2018-12-24T08:10:19.919Z,17.10
2018-12-24T08:12:48.131Z,16.30
2018-12-24T08:15:16.317Z,18.00
2018-12-24T08:17:44.509Z,19.40
2018-12-24T08:20:12.658Z,16.35
2018-12-24T08:22:40.889Z,16.35
2018-12-24T08:25:09.011Z,18.02
2018-12-24T08:27:37.194Z,16.40
2018-12-24T08:30:05.742Z,17.55
2018-12-24T08:32:33.866Z,17.07
2018-12-24T08:35:02.014Z,15.60
2018-12-24T08:37:30.166Z,16.27
2018-12-24T08:39:58.360Z,16.77
2018-12-24T08:42:26.503Z,16.15
2018-12-24T08:44:54.755Z,15.90
2018-12-24T08:47:22.976Z,16.90
2018-12-24T08:49:51.159Z,19.12
2018-12-24T08:52:19.302Z,17.95
2018-12-24T08:54:47.475Z,17.17
2018-12-24T08:57:15.626Z,17.57
2018-12-24T08:59:43.741Z,15.88
2018-12-24T09:02:12.095Z,17.00
2018-12-24T09:04:40.221Z,16.90
2018-12-24T09:07:08.399Z,19.35
2018-12-24T09:09:36.570Z,15.55
2018-12-24T09:12:04.757Z,14.93
2018-12-24T09:14:32.883Z,14.00
2018-12-24T09:17:01.067Z,14.90
2018-12-24T09:19:29.250Z,14.05
2018-12-24T09:21:57.498Z,15.43
2018-12-24T09:24:25.615Z,14.85
2018-12-24T09:26:53.790Z,14.10
2018-12-24T09:29:21.949Z,14.28
2018-12-24T09:31:50.114Z,14.25
2018-12-24T09:34:18.667Z,13.90
2018-12-24T09:36:47.051Z,14.40
2018-12-24T09:39:15.198Z,14.23
2018-12-24T09:41:43.362Z,16.45
2018-12-24T09:44:11.570Z,14.80
2018-12-24T09:46:39.913Z,14.13
2018-12-24T09:49:08.178Z,13.70
2018-12-24T09:51:36.363Z,14.07
2018-12-24T09:54:04.531Z,14.95
2018-12-24T09:56:32.657Z,12.85
2018-12-24T09:59:00.827Z,15.18
2018-12-24T10:01:28.975Z,14.75
2018-12-24T10:04:02.809Z,13.08
2018-12-24T10:06:30.569Z,12.98
2018-12-24T10:08:59.375Z,13.90
2018-12-24T10:11:27.527Z,16.85
2018-12-24T10:13:55.676Z,13.98
2018-12-24T10:16:23.823Z,14.55
2018-12-24T10:18:52.001Z,15.00
2018-12-24T10:21:20.188Z,13.98
2018-12-24T10:23:48.357Z,13.78
2018-12-24T10:26:16.506Z,14.25
2018-12-24T10:28:44.649Z,13.60
2018-12-24T10:31:12.802Z,13.62
2018-12-24T10:33:40.933Z,14.80
2018-12-24T10:36:09.105Z,14.47
2018-12-24T10:38:37.251Z,14.45
2018-12-24T10:41:08.005Z,13.72
2018-12-24T10:43:36.157Z,13.85
2018-12-24T10:46:04.323Z,14.03
2018-12-24T10:48:32.470Z,13.80
2018-12-24T10:51:19.511Z,14.70
2018-12-24T10:53:48.222Z,13.88
2018-12-24T10:56:16.444Z,15.25
2018-12-24T10:58:44.816Z,14.07
2018-12-24T11:01:13.111Z,14.63
2018-12-24T11:03:41.283Z,14.13
2018-12-24T11:06:09.454Z,14.03
2018-12-24T11:08:37.675Z,15.60
2018-12-24T11:11:05.922Z,14.75
2018-12-24T11:13:34.106Z,14.38
2018-12-24T11:16:02.319Z,13.68
2018-12-24T11:18:30.558Z,14.45
2018-12-24T11:20:58.828Z,14.58
2018-12-24T11:23:27.099Z,16.70
2018-12-24T11:25:55.270Z,13.80
2018-12-24T11:28:23.430Z,14.28
2018-12-24T11:30:51.630Z,13.18
2018-12-24T11:33:19.819Z,13.80
2018-12-24T11:35:48.151Z,13.25
2018-12-24T11:38:16.365Z,15.10
2018-12-24T11:40:44.573Z,14.03
2018-12-24T11:43:12.819Z,13.35
2018-12-24T11:45:40.992Z,13.83
2018-12-24T11:48:09.225Z,14.40
2018-12-24T11:50:37.442Z,13.68
2018-12-24T11:53:05.654Z,14.05
2018-12-24T11:55:34.024Z,13.53
2018-12-24T11:58:02.207Z,14.40
2018-12-24T12:00:30.427Z,19.75
2018-12-24T12:03:17.569Z,15.05
2018-12-24T12:06:04.692Z,15.25
2018-12-24T12:08:32.928Z,15.78
2018-12-24T12:14:08.761Z,13.35
2018-12-24T12:16:37.368Z,14.60
2018-12-24T12:19:05.616Z,14.47
2018-12-24T12:21:33.805Z,18.30
2018-12-24T12:24:02.051Z,12.78
2018-12-24T12:26:30.466Z,13.10
2018-12-24T12:29:17.667Z,13.30
2018-12-24T12:31:45.884Z,14.58
2018-12-24T12:34:14.070Z,13.78
2018-12-24T12:36:42.362Z,13.72
2018-12-24T12:39:10.558Z,13.80
2018-12-24T12:41:38.777Z,14.23
2018-12-24T12:44:07.035Z,14.63
2018-12-24T12:46:35.202Z,14.10
2018-12-24T12:49:03.383Z,15.03
2018-12-24T12:51:31.579Z,16.00
2018-12-24T12:53:59.728Z,15.45
2018-12-24T12:56:27.906Z,28.38
2018-12-24T12:58:56.422Z,19.67
2018-12-24T13:01:24.587Z,17.98
2018-12-24T13:03:52.702Z,16.40
2018-12-24T13:06:20.872Z,15.00
2018-12-24T13:08:49.003Z,14.40
2018-12-24T13:11:17.200Z,16.55
2018-12-24T13:13:45.314Z,14.70
2018-12-24T13:16:13.522Z,14.98
2018-12-24T13:18:41.687Z,16.30
2018-12-24T13:21:09.839Z,15.68
2018-12-24T13:23:38.012Z,14.58
2018-12-24T13:26:06.215Z,15.60
2018-12-24T13:28:34.343Z,13.62
2018-12-24T13:31:02.487Z,13.90
2018-12-24T13:33:30.873Z,13.70
2018-12-24T13:35:59.253Z,14.07
2018-12-24T13:38:27.470Z,14.90
2018-12-24T13:40:55.623Z,13.95
2018-12-24T13:43:23.795Z,14.10
2018-12-24T13:45:51.967Z,13.95
2018-12-24T13:48:20.127Z,15.10
2018-12-24T13:50:48.290Z,15.32
2018-12-24T13:53:16.535Z,14.25
2018-12-24T13:55:44.687Z,13.93
2018-12-24T13:58:12.894Z,17.40
2018-12-24T14:00:41.064Z,13.65
2018-12-24T14:03:09.214Z,14.70
2018-12-24T14:05:37.389Z,13.75
2018-12-24T14:08:05.534Z,13.90
2018-12-24T14:10:33.671Z,15.90
2018-12-24T14:13:01.831Z,14.98
2018-12-24T14:15:30.004Z,15.90
2018-12-24T14:17:58.146Z,15.48
2018-12-24T14:20:26.314Z,16.37
2018-12-24T14:22:54.445Z,15.93
2018-12-24T14:25:22.600Z,17.10
2018-12-24T14:27:50.768Z,14.10
2018-12-24T14:32:52.477Z,15.10
2018-12-24T14:35:20.661Z,24.12
2018-12-24T14:37:48.802Z,16.73
2018-12-24T14:40:16.970Z,18.85
2018-12-24T14:42:45.122Z,18.37
2018-12-24T14:45:13.418Z,16.27
2018-12-24T14:47:41.603Z,15.30
2018-12-24T14:50:09.797Z,15.60
2018-12-24T14:52:37.922Z,14.15
2018-12-24T14:55:06.138Z,16.97
2018-12-24T14:57:34.277Z,17.50
2018-12-24T15:00:02.429Z,16.50
2018-12-24T15:02:30.736Z,16.97
2018-12-24T15:04:58.842Z,14.93
2018-12-24T15:07:27.007Z,14.95
2018-12-24T15:09:55.146Z,14.40
2018-12-24T15:12:25.769Z,14.93
2018-12-24T15:14:53.928Z,17.90
2018-12-24T15:17:22.092Z,14.73
2018-12-24T15:19:50.326Z,15.58
2018-12-24T15:22:18.499Z,17.23
2018-12-24T15:24:47.229Z,16.97
2018-12-24T15:27:15.419Z,16.87
2018-12-24T15:29:43.533Z,18.02
2018-12-24T15:32:11.690Z,17.65
2018-12-24T15:34:39.840Z,16.85
2018-12-24T15:37:08.040Z,14.70
2018-12-24T15:39:36.201Z,15.18
2018-12-24T15:42:04.381Z,15.35
2018-12-24T15:44:32.494Z,16.30
2018-12-24T15:47:00.604Z,17.52
2018-12-24T15:49:28.835Z,15.60
2018-12-24T15:51:57.000Z,16.42
2018-12-24T15:54:25.169Z,15.55
2018-12-24T15:56:53.305Z,15.78
2018-12-24T15:59:21.534Z,15.65
2018-12-24T16:01:49.675Z,14.47
2018-12-24T16:04:17.879Z,15.00
2018-12-24T16:06:46.014Z,16.15
2018-12-24T16:09:14.210Z,16.10
2018-12-24T16:11:42.336Z,15.60
2018-12-24T16:14:10.661Z,17.00
2018-12-24T16:16:38.771Z,16.17
2018-12-24T16:19:06.895Z,15.70
2018-12-24T16:21:35.090Z,15.48
2018-12-24T16:24:03.231Z,15.68
2018-12-24T16:26:31.376Z,14.70
2018-12-24T16:28:59.505Z,13.95
2018-12-24T16:31:27.665Z,14.80
2018-12-24T16:33:55.887Z,15.20
2018-12-24T16:36:24.055Z,15.98
2018-12-24T16:38:52.177Z,16.52
2018-12-24T16:41:20.374Z,14.90
2018-12-24T16:43:48.506Z,15.20
2018-12-24T16:46:16.654Z,15.93
2018-12-24T16:48:44.786Z,15.25
2018-12-24T16:51:13.190Z,15.65
2018-12-24T16:53:41.354Z,15.20
2018-12-24T16:56:09.527Z,16.25
2018-12-24T16:58:37.690Z,18.87
2018-12-24T17:01:05.933Z,16.20
2018-12-24T17:03:34.105Z,14.03
2018-12-24T17:06:02.290Z,15.28
2018-12-24T17:08:30.440Z,16.85
2018-12-24T17:10:58.616Z,15.10
2018-12-24T17:13:26.761Z,15.00
2018-12-24T17:15:54.930Z,17.23
2018-12-24T17:18:23.042Z,16.40
2018-12-24T17:20:51.229Z,14.85
2018-12-24T17:23:19.406Z,15.53
2018-12-24T17:25:47.602Z,17.02
2018-12-24T17:28:15.934Z,14.80
2018-12-24T17:30:44.091Z,15.30
2018-12-24T17:33:12.244Z,15.18
2018-12-24T17:35:40.386Z,14.53
2018-12-24T17:40:42.556Z,16.40
2018-12-24T17:43:10.739Z,16.52
2018-12-24T17:45:38.898Z,14.47
2018-12-24T17:48:07.094Z,14.55
2018-12-24T17:50:35.246Z,16.48
2018-12-24T17:53:03.446Z,14.70
2018-12-24T17:55:31.606Z,16.23
2018-12-24T17:57:59.751Z,16.93
2018-12-24T18:00:27.940Z,17.30
2018-12-24T18:02:56.116Z,15.00
2018-12-24T18:05:24.278Z,14.83
2018-12-24T18:07:52.421Z,15.58
2018-12-24T18:10:20.806Z,18.60
2018-12-24T18:12:49.018Z,19.10
2018-12-24T18:15:17.247Z,15.05
2018-12-24T18:17:45.420Z,15.35
2018-12-24T18:20:13.674Z,15.43
2018-12-24T18:22:41.901Z,15.43
2018-12-24T18:25:10.124Z,14.33
2018-12-24T18:27:38.326Z,15.32
2018-12-24T18:30:08.983Z,15.35
2018-12-24T18:32:37.181Z,14.75
2018-12-24T18:35:05.426Z,15.70
2018-12-24T18:37:33.604Z,18.52
2018-12-24T18:40:01.881Z,17.52
2018-12-24T18:42:30.074Z,16.45
2018-12-24T18:44:58.250Z,16.10
2018-12-24T18:47:33.203Z,17.50
2018-12-24T18:50:15.341Z,16.40
2018-12-24T18:55:51.239Z,18.70
2018-12-24T18:58:19.404Z,19.62
2018-12-24T19:00:47.621Z,16.95
2018-12-24T19:03:15.786Z,16.30
2018-12-24T19:05:46.758Z,16.52
2018-12-24T19:08:14.945Z,17.15
2018-12-24T19:10:43.188Z,16.95
2018-12-24T19:13:11.362Z,17.12
2018-12-24T19:18:33.473Z,16.40
2018-12-24T19:23:51.537Z,16.17
2018-12-24T19:26:20.485Z,15.05
2018-12-24T19:28:48.816Z,16.57
2018-12-24T19:31:17.050Z,15.83
2018-12-24T19:33:45.286Z,17.57
2018-12-24T19:36:13.494Z,15.05
2018-12-24T19:38:41.726Z,17.95
2018-12-24T19:41:09.922Z,15.30
2018-12-24T19:43:38.165Z,16.52
2018-12-24T19:46:25.290Z,15.45
2018-12-24T19:48:53.526Z,16.00
2018-12-24T19:51:21.687Z,16.85
2018-12-24T19:53:49.899Z,18.15
2018-12-24T19:56:18.054Z,21.42
2018-12-24T19:58:46.346Z,19.25
2018-12-24T20:07:22.096Z,15.35
2018-12-24T20:10:09.225Z,15.75
2018-12-24T20:12:37.421Z,14.68
2018-12-24T20:15:05.771Z,16.90
2018-12-24T20:17:34.025Z,15.68
2018-12-24T20:20:02.201Z,15.30
2018-12-24T20:22:30.358Z,15.58
2018-12-24T20:24:58.628Z,16.73
2018-12-24T20:30:34.499Z,15.03
2018-12-24T20:33:02.685Z,14.35
2018-12-24T20:35:31.124Z,15.85
2018-12-24T20:38:01.781Z,16.67
2018-12-24T20:40:30.238Z,17.80
2018-12-24T20:42:58.464Z,15.75
2018-12-24T20:45:26.654Z,16.48
2018-12-24T20:47:54.818Z,14.70
2018-12-24T20:50:23.051Z,14.75
2018-12-24T20:52:51.226Z,14.65
2018-12-24T20:55:19.405Z,15.95
2018-12-24T20:57:47.626Z,15.43
2018-12-24T21:03:10.140Z,16.85
2018-12-24T21:08:32.385Z,17.45
2018-12-24T21:11:00.567Z,17.32
2018-12-24T21:13:28.818Z,15.50
2018-12-24T21:15:57.005Z,16.02
2018-12-24T21:18:27.435Z,15.10
2018-12-24T21:20:55.690Z,15.18
2018-12-24T21:23:24.729Z,15.90
2018-12-24T21:26:11.840Z,15.95
2018-12-24T21:28:52.136Z,16.67
2018-12-24T21:31:10.070Z,15.80
2018-12-24T21:33:38.331Z,14.60
2018-12-24T21:36:06.496Z,14.50
2018-12-24T21:38:34.718Z,14.80
2018-12-24T21:41:02.929Z,15.30
2018-12-24T21:43:31.233Z,15.38
2018-12-24T21:45:59.447Z,15.15
2018-12-24T21:48:27.950Z,17.60
2018-12-24T21:50:56.191Z,15.48
2018-12-24T21:53:24.411Z,14.75
2018-12-24T21:55:52.878Z,17.57
2018-12-24T21:58:22.524Z,17.30
2018-12-24T22:00:50.749Z,15.18
2018-12-24T22:03:31.266Z,16.10
2018-12-24T22:05:48.936Z,15.38
2018-12-24T22:08:17.291Z,13.58
2018-12-24T22:10:45.593Z,16.23
2018-12-24T22:13:13.753Z,15.18
2018-12-24T22:16:02.319Z,14.95
2018-12-24T22:18:32.297Z,17.07
2018-12-24T22:21:00.825Z,16.35
2018-12-24T22:23:29.015Z,19.60
2018-12-24T22:25:57.206Z,19.65
2018-12-24T22:28:25.389Z,22.48
2018-12-24T22:30:53.578Z,18.73
2018-12-24T22:33:21.747Z,16.15
2018-12-24T22:36:02.497Z,15.18
2018-12-24T22:38:19.888Z,17.82
2018-12-24T22:40:48.118Z,15.90
2018-12-24T22:43:16.770Z,16.30
2018-12-24T22:45:45.024Z,17.62
2018-12-24T22:48:13.325Z,15.28
2018-12-24T22:50:41.531Z,15.60
2018-12-24T22:53:09.761Z,15.90
2018-12-24T22:55:37.942Z,15.50
2018-12-24T22:58:06.289Z,14.78
2018-12-24T23:00:53.418Z,15.65
2018-12-24T23:03:21.626Z,15.38
2018-12-24T23:05:49.806Z,15.23
2018-12-24T23:08:18.033Z,15.63
2018-12-24T23:10:46.304Z,15.55
2018-12-24T23:13:14.538Z,17.02
2018-12-24T23:15:43.012Z,13.93
2018-12-24T23:18:11.230Z,15.35
2018-12-24T23:20:39.449Z,15.53
2018-12-24T23:23:07.713Z,16.30
2018-12-24T23:25:35.897Z,15.58
2018-12-24T23:30:51.326Z,16.20
2018-12-24T23:33:19.573Z,15.15
2018-12-24T23:35:47.813Z,13.62
2018-12-24T23:38:15.987Z,14.43
2018-12-24T23:40:44.723Z,14.43
2018-12-24T23:43:13.288Z,13.65
2018-12-24T23:45:41.507Z,13.72
2018-12-24T23:48:09.722Z,15.78
2018-12-24T23:50:56.894Z,13.43
2018-12-24T23:53:25.174Z,14.43
2018-12-24T23:55:53.362Z,15.85
2018-12-24T23:58:21.583Z,14.78
